createdAt,value
2018-12-08T00:00:26.074Z,1002.03
2018-12-08T00:01:34.995Z,1002
2018-12-08T00:02:44.180Z,1001.95
2018-12-08T00:03:53.372Z,1001.95
2018-12-08T00:05:02.557Z,1001.97
2018-12-08T00:06:11.747Z,1001.92
2018-12-08T00:07:21.233Z,1002.03
2018-12-08T00:08:30.727Z,1002.06
2018-12-08T00:09:40.270Z,1002.06
2018-12-08T00:10:49.474Z,1002.1
2018-12-08T00:11:58.879Z,1002.04
2018-12-08T00:13:08.306Z,1002.04
2018-12-08T00:14:17.766Z,1001.98
2018-12-08T00:15:27.480Z,1001.95
2018-12-08T00:16:36.734Z,1002.03
2018-12-08T00:17:46.811Z,1002.01
2018-12-08T00:18:56.491Z,1002.13
2018-12-08T00:20:06.310Z,1002.07
2018-12-08T00:21:15.984Z,1002.1
2018-12-08T00:22:25.961Z,1002.1
2018-12-08T00:23:35.637Z,1002.1
2018-12-08T00:24:45.119Z,1002.1
2018-12-08T00:25:54.285Z,1002.07
2018-12-08T00:27:04.076Z,1002.17
2018-12-08T00:28:13.150Z,1002.11
2018-12-08T00:29:23.389Z,1002.08
2018-12-08T00:30:33.318Z,1002.1
2018-12-08T00:31:42.997Z,1002.13
2018-12-08T00:32:52.449Z,1002.21
2018-12-08T00:34:01.153Z,1002.27
2018-12-08T00:35:11.108Z,1002.22
2018-12-08T00:36:20.575Z,1002.3
2018-12-08T00:37:30.205Z,1002.28
2018-12-08T00:38:40.729Z,1002.3
2018-12-08T00:39:49.659Z,1002.37
2018-12-08T00:40:59.560Z,1002.36
2018-12-08T00:42:09.460Z,1002.35
2018-12-08T00:43:19.150Z,1002.41
2018-12-08T00:44:28.709Z,1002.4
2018-12-08T00:45:38.850Z,1002.39
2018-12-08T00:46:50.875Z,1002.36
2018-12-08T00:48:00.061Z,1002.27
2018-12-08T00:49:09.787Z,1002.36
2018-12-08T00:50:20.737Z,1002.37
2018-12-08T00:51:30.183Z,1002.31
2018-12-08T00:52:39.101Z,1002.3
2018-12-08T00:53:48.373Z,1002.45
2018-12-08T00:54:58.211Z,1002.41
2018-12-08T00:56:07.518Z,1002.5
2018-12-08T00:57:16.997Z,1002.44
2018-12-08T00:58:26.193Z,1002.51
2018-12-08T00:59:35.797Z,1002.47
2018-12-08T01:00:44.843Z,1002.53
2018-12-08T01:01:54.424Z,1002.58
2018-12-08T01:03:03.897Z,1002.48
2018-12-08T01:04:13.343Z,1002.52
2018-12-08T01:05:22.277Z,1002.51
2018-12-08T01:06:31.976Z,1002.46
2018-12-08T01:07:42.058Z,1002.45
2018-12-08T01:08:50.985Z,1002.55
2018-12-08T01:10:00.411Z,1002.48
2018-12-08T01:11:09.675Z,1002.59
2018-12-08T01:12:19.172Z,1002.54
2018-12-08T01:13:28.958Z,1002.58
2018-12-08T01:14:39.437Z,1002.58
2018-12-08T01:15:49.119Z,1002.57
2018-12-08T01:16:58.420Z,1002.5
2018-12-08T01:18:08.103Z,1002.58
2018-12-08T01:19:17.525Z,1002.63
2018-12-08T01:20:26.470Z,1002.67
2018-12-08T01:21:36.152Z,1002.74
2018-12-08T01:22:45.086Z,1002.78
2018-12-08T01:23:54.258Z,1002.7
2018-12-08T01:25:03.477Z,1002.77
2018-12-08T01:26:12.897Z,1002.69
2018-12-08T01:27:22.573Z,1002.74
2018-12-08T01:28:32.398Z,1002.64
2018-12-08T01:29:41.739Z,1002.69
2018-12-08T01:30:50.937Z,1002.7
2018-12-08T01:32:00.110Z,1002.71
2018-12-08T01:33:09.030Z,1002.62
2018-12-08T01:34:18.352Z,1002.66
2018-12-08T01:35:27.787Z,1002.59
2018-12-08T01:36:37.253Z,1002.69
2018-12-08T01:37:46.940Z,1002.68
2018-12-08T01:38:56.645Z,1002.65
2018-12-08T01:40:05.553Z,1002.67
2018-12-08T01:41:14.994Z,1002.7
2018-12-08T01:42:24.271Z,1002.65
2018-12-08T01:43:33.705Z,1002.59
2018-12-08T01:44:42.896Z,1002.68
2018-12-08T01:45:52.091Z,1002.61
2018-12-08T01:47:01.260Z,1002.55
2018-12-08T01:48:10.702Z,1002.58
2018-12-08T01:49:19.882Z,1002.59
2018-12-08T01:50:29.058Z,1002.6
2018-12-08T01:51:38.544Z,1002.65
2018-12-08T01:52:48.272Z,1002.54
2018-12-08T01:53:57.190Z,1002.62
2018-12-08T01:55:05.883Z,1002.55
2018-12-08T01:56:15.311Z,1002.55
2018-12-08T01:57:24.726Z,1002.52
2018-12-08T01:58:33.653Z,1002.57
2018-12-08T01:59:42.591Z,1002.59
2018-12-08T02:00:51.997Z,1002.52
2018-12-08T02:02:01.805Z,1002.56
2018-12-08T02:03:10.743Z,1002.44
2018-12-08T02:04:19.650Z,1002.45
2018-12-08T02:05:28.845Z,1002.58
2018-12-08T02:06:37.532Z,1002.54
2018-12-08T02:07:46.969Z,1002.5
2018-12-08T02:08:56.165Z,1002.55
2018-12-08T02:10:05.342Z,1002.51
2018-12-08T02:11:14.287Z,1002.54
2018-12-08T02:12:30.011Z,1002.61
2018-12-08T02:13:39.446Z,1002.6
2018-12-08T02:14:48.639Z,1002.59
2018-12-08T02:15:57.808Z,1002.54
2018-12-08T02:17:07.272Z,1002.56
2018-12-08T02:18:16.183Z,1002.6
2018-12-08T02:19:25.385Z,1002.57
2018-12-08T02:20:34.605Z,1002.53
2018-12-08T02:21:43.525Z,1002.64
2018-12-08T02:22:52.974Z,1002.6
2018-12-08T02:24:02.923Z,1002.61
2018-12-08T02:25:12.343Z,1002.62
2018-12-08T02:26:21.765Z,1002.56
2018-12-08T02:27:30.936Z,1002.6
2018-12-08T02:28:39.929Z,1002.55
2018-12-08T02:29:49.354Z,1002.54
2018-12-08T02:30:58.788Z,1002.53
2018-12-08T02:32:08.217Z,1002.5
2018-12-08T02:33:17.682Z,1002.48
2018-12-08T02:34:27.651Z,1002.49
2018-12-08T02:35:36.826Z,1002.5
2018-12-08T02:36:46.517Z,1002.43
2018-12-08T02:37:56.211Z,1002.48
2018-12-08T02:39:05.649Z,1002.4
2018-12-08T02:40:14.894Z,1002.48
2018-12-08T02:41:24.843Z,1002.42
2018-12-08T02:42:34.020Z,1002.47
2018-12-08T02:43:43.696Z,1002.41
2018-12-08T02:44:53.376Z,1002.45
2018-12-08T02:46:02.845Z,1002.51
2018-12-08T02:47:12.288Z,1002.46
2018-12-08T02:48:21.723Z,1002.43
2018-12-08T02:49:31.656Z,1002.4
2018-12-08T02:50:41.353Z,1002.42
2018-12-08T02:51:51.046Z,1002.47
2018-12-08T02:53:00.233Z,1002.33
2018-12-08T02:54:09.748Z,1002.4
2018-12-08T02:55:19.180Z,1002.41
2018-12-08T02:56:28.865Z,1002.43
2018-12-08T02:57:38.572Z,1002.36
2018-12-08T02:58:48.002Z,1002.39
2018-12-08T02:59:57.419Z,1002.43
2018-12-08T03:01:06.914Z,1002.41
2018-12-08T03:02:16.350Z,1002.4
2018-12-08T03:03:25.517Z,1002.39
2018-12-08T03:04:34.700Z,1002.35
2018-12-08T03:05:44.379Z,1002.38
2018-12-08T03:06:54.086Z,1002.36
2018-12-08T03:08:03.793Z,1002.32
2018-12-08T03:09:12.978Z,1002.34
2018-12-08T03:10:22.409Z,1002.32
2018-12-08T03:11:31.860Z,1002.31
2018-12-08T03:12:41.023Z,1002.3
2018-12-08T03:13:49.969Z,1002.33
2018-12-08T03:14:59.151Z,1002.29
2018-12-08T03:16:08.830Z,1002.3
2018-12-08T03:17:17.774Z,1002.3
2018-12-08T03:18:27.191Z,1002.3
2018-12-08T03:19:36.463Z,1002.25
2018-12-08T03:20:45.394Z,1002.29
2018-12-08T03:21:55.107Z,1002.26
2018-12-08T03:23:04.534Z,1002.25
2018-12-08T03:24:13.723Z,1002.21
2018-12-08T03:25:23.147Z,1002.16
2018-12-08T03:26:32.602Z,1002.18
2018-12-08T03:27:41.791Z,1002.15
2018-12-08T03:28:51.206Z,1002.13
2018-12-08T03:30:00.369Z,1002.11
2018-12-08T03:31:10.066Z,1002.09
2018-12-08T03:32:20.005Z,1002.12
2018-12-08T03:33:29.947Z,1002.11
2018-12-08T03:34:38.868Z,1002.11
2018-12-08T03:35:48.543Z,1002.07
2018-12-08T03:36:57.734Z,1002.07
2018-12-08T03:38:07.424Z,1002.04
2018-12-08T03:39:16.839Z,1002.04
2018-12-08T03:40:26.570Z,1001.98
2018-12-08T03:41:35.760Z,1002.03
2018-12-08T03:42:44.963Z,1002.04
2018-12-08T03:43:54.655Z,1001.98
2018-12-08T03:45:04.582Z,1001.98
2018-12-08T03:46:14.291Z,1001.98
2018-12-08T03:47:23.464Z,1001.96
2018-12-08T03:48:32.907Z,1001.91
2018-12-08T03:49:42.580Z,1001.97
2018-12-08T03:50:52.278Z,1001.95
2018-12-08T03:52:01.734Z,1001.97
2018-12-08T03:53:11.687Z,1001.95
2018-12-08T03:54:21.387Z,1001.94
2018-12-08T03:55:31.069Z,1001.91
2018-12-08T03:56:40.242Z,1001.91
2018-12-08T03:57:50.201Z,1001.94
2018-12-08T03:58:59.877Z,1001.97
2018-12-08T04:00:09.296Z,1001.94
2018-12-08T04:01:19.014Z,1001.98
2018-12-08T04:02:28.213Z,1002.06
2018-12-08T04:03:37.663Z,1002.04
2018-12-08T04:04:47.100Z,1002.05
2018-12-08T04:05:56.550Z,1001.99
2018-12-08T04:07:05.733Z,1002.04
2018-12-08T04:08:15.167Z,1001.94
2018-12-08T04:09:24.367Z,1001.98
2018-12-08T04:10:34.040Z,1001.94
2018-12-08T04:11:43.734Z,1001.88
2018-12-08T04:12:53.668Z,1001.85
2018-12-08T04:14:03.110Z,1001.83
2018-12-08T04:15:12.794Z,1001.76
2018-12-08T04:16:22.485Z,1001.81
2018-12-08T04:17:31.923Z,1001.79
2018-12-08T04:18:41.121Z,1001.75
2018-12-08T04:19:50.562Z,1001.76
2018-12-08T04:20:59.994Z,1001.76
2018-12-08T04:22:09.176Z,1001.78
2018-12-08T04:23:18.846Z,1001.75
2018-12-08T04:24:28.627Z,1001.88
2018-12-08T04:25:38.316Z,1001.76
2018-12-08T04:26:48.007Z,1001.74
2018-12-08T04:27:57.250Z,1001.81
2018-12-08T04:29:06.947Z,1001.84
2018-12-08T04:30:16.380Z,1001.74
2018-12-08T04:31:25.818Z,1001.71
2018-12-08T04:32:35.500Z,1001.71
2018-12-08T04:33:44.945Z,1001.72
2018-12-08T04:34:54.459Z,1001.72
2018-12-08T04:36:04.414Z,1001.78
2018-12-08T04:37:14.112Z,1001.73
2018-12-08T04:38:23.829Z,1001.73
2018-12-08T04:39:33.075Z,1001.69
2018-12-08T04:40:42.494Z,1001.71
2018-12-08T04:41:51.922Z,1001.71
2018-12-08T04:43:01.623Z,1001.72
2018-12-08T04:44:11.306Z,1001.7
2018-12-08T04:45:20.736Z,1001.69
2018-12-08T04:46:29.940Z,1001.64
2018-12-08T04:47:38.890Z,1001.65
2018-12-08T04:48:48.118Z,1001.58
2018-12-08T04:49:57.051Z,1001.57
2018-12-08T04:51:06.485Z,1001.52
2018-12-08T04:52:15.934Z,1001.6
2018-12-08T04:53:24.616Z,1001.63
2018-12-08T04:54:34.139Z,1001.63
2018-12-08T04:55:43.829Z,1001.57
2018-12-08T04:56:52.772Z,1001.57
2018-12-08T04:58:02.192Z,1001.57
2018-12-08T04:59:11.625Z,1001.55
2018-12-08T05:00:20.806Z,1001.55
2018-12-08T05:01:30.242Z,1001.56
2018-12-08T05:02:39.726Z,1001.59
2018-12-08T05:03:49.176Z,1001.57
2018-12-08T05:04:59.110Z,1001.58
2018-12-08T05:06:08.559Z,1001.52
2018-12-08T05:07:17.773Z,1001.62
2018-12-08T05:08:27.194Z,1001.65
2018-12-08T05:09:35.895Z,1001.61
2018-12-08T05:10:45.310Z,1001.62
2018-12-08T05:11:54.303Z,1001.63
2018-12-08T05:13:03.500Z,1001.73
2018-12-08T05:14:12.945Z,1001.77
2018-12-08T05:15:21.880Z,1001.69
2018-12-08T05:16:31.568Z,1001.68
2018-12-08T05:17:40.753Z,1001.7
2018-12-08T05:18:50.423Z,1001.64
2018-12-08T05:20:00.014Z,1001.71
2018-12-08T05:21:08.695Z,1001.72
2018-12-08T05:22:17.639Z,1001.7
2018-12-08T05:23:27.141Z,1001.62
2018-12-08T05:24:36.874Z,1001.68
2018-12-08T05:25:46.554Z,1001.68
2018-12-08T05:26:56.239Z,1001.72
2018-12-08T05:28:05.432Z,1001.63
2018-12-08T05:29:14.619Z,1001.61
2018-12-08T05:30:24.028Z,1001.61
2018-12-08T05:31:33.033Z,1001.68
2018-12-08T05:32:42.724Z,1001.64
2018-12-08T05:33:51.901Z,1001.6
2018-12-08T05:35:00.831Z,1001.66
2018-12-08T05:36:10.317Z,1001.57
2018-12-08T05:37:19.767Z,1001.6
2018-12-08T05:38:28.708Z,1001.66
2018-12-08T05:39:37.653Z,1001.63
2018-12-08T05:40:47.103Z,1001.64
2018-12-08T05:41:56.560Z,1001.61
2018-12-08T05:43:05.639Z,1001.56
2018-12-08T05:44:15.321Z,1001.55
2018-12-08T05:45:24.550Z,1001.51
2018-12-08T05:46:33.979Z,1001.61
2018-12-08T05:47:43.419Z,1001.55
2018-12-08T05:48:52.646Z,1001.52
2018-12-08T05:50:01.937Z,1001.49
2018-12-08T05:51:11.213Z,1001.48
2018-12-08T05:52:20.457Z,1001.54
2018-12-08T05:53:29.883Z,1001.55
2018-12-08T05:54:39.316Z,1001.53
2018-12-08T05:55:49.005Z,1001.57
2018-12-08T05:56:58.442Z,1001.63
2018-12-08T05:58:07.695Z,1001.63
2018-12-08T05:59:16.889Z,1001.59
2018-12-08T06:00:25.685Z,1001.63
2018-12-08T06:01:34.864Z,1001.55
2018-12-08T06:02:44.060Z,1001.6
2018-12-08T06:03:53.257Z,1001.53
2018-12-08T06:05:02.961Z,1001.52
2018-12-08T06:06:12.897Z,1001.58
2018-12-08T06:07:22.697Z,1001.47
2018-12-08T06:08:32.162Z,1001.54
2018-12-08T06:09:41.340Z,1001.44
2018-12-08T06:10:50.617Z,1001.46
2018-12-08T06:11:59.807Z,1001.41
2018-12-08T06:13:09.007Z,1001.47
2018-12-08T06:14:17.937Z,1001.47
2018-12-08T06:15:27.397Z,1001.51
2018-12-08T06:16:36.578Z,1001.35
2018-12-08T06:17:46.015Z,1001.37
2018-12-08T06:18:54.973Z,1001.44
2018-12-08T06:20:04.756Z,1001.43
2018-12-08T06:21:14.493Z,1001.58
2018-12-08T06:22:24.441Z,1001.59
2018-12-08T06:23:33.889Z,1001.62
2018-12-08T06:24:43.833Z,1001.59
2018-12-08T06:25:53.537Z,1001.55
2018-12-08T06:27:02.481Z,1001.48
2018-12-08T06:28:11.947Z,1001.5
2018-12-08T06:29:21.633Z,1001.48
2018-12-08T06:30:30.841Z,1001.5
2018-12-08T06:31:40.075Z,1001.53
2018-12-08T06:32:49.264Z,1001.46
2018-12-08T06:33:58.204Z,1001.44
2018-12-08T06:35:07.926Z,1001.48
2018-12-08T06:36:17.895Z,1001.51
2018-12-08T06:37:27.629Z,1001.57
2018-12-08T06:38:36.312Z,1001.55
2018-12-08T06:39:45.256Z,1001.52
2018-12-08T06:40:54.185Z,1001.49
2018-12-08T06:42:03.376Z,1001.43
2018-12-08T06:43:13.057Z,1001.41
2018-12-08T06:44:22.585Z,1001.42
2018-12-08T06:45:32.012Z,1001.43
2018-12-08T06:46:41.472Z,1001.41
2018-12-08T06:47:50.663Z,1001.46
2018-12-08T06:48:59.922Z,1001.39
2018-12-08T06:50:09.597Z,1001.42
2018-12-08T06:51:19.284Z,1001.37
2018-12-08T06:52:28.479Z,1001.33
2018-12-08T06:53:37.430Z,1001.25
2018-12-08T06:54:47.136Z,1001.26
2018-12-08T06:55:56.316Z,1001.3
2018-12-08T06:57:06.379Z,1001.4
2018-12-08T06:58:16.138Z,1001.33
2018-12-08T06:59:25.914Z,1001.33
2018-12-08T07:00:34.863Z,1001.33
2018-12-08T07:01:44.060Z,1001.35
2018-12-08T07:02:53.998Z,1001.3
2018-12-08T07:04:03.192Z,1001.35
2018-12-08T07:05:12.870Z,1001.28
2018-12-08T07:06:22.574Z,1001.22
2018-12-08T07:07:33.860Z,1001.25
2018-12-08T07:08:43.058Z,1001.28
2018-12-08T07:09:52.488Z,1001.22
2018-12-08T07:11:01.447Z,1001.18
2018-12-08T07:12:10.651Z,1001.2
2018-12-08T07:13:20.094Z,1001.22
2018-12-08T07:14:29.848Z,1001.19
2018-12-08T07:15:39.288Z,1001.22
2018-12-08T07:16:48.970Z,1001.27
2018-12-08T07:17:58.157Z,1001.13
2018-12-08T07:19:07.579Z,1001.11
2018-12-08T07:20:16.825Z,1001.1
2018-12-08T07:21:26.745Z,1000.99
2018-12-08T07:22:36.497Z,1000.99
2018-12-08T07:23:45.675Z,1001.06
2018-12-08T07:24:55.169Z,1001
2018-12-08T07:26:04.631Z,1001.09
2018-12-08T07:27:14.112Z,1001.03
2018-12-08T07:28:23.586Z,1001.01
2018-12-08T07:29:32.277Z,1000.95
2018-12-08T07:30:41.731Z,1000.99
2018-12-08T07:31:50.912Z,1001.04
2018-12-08T07:33:00.433Z,1001.06
2018-12-08T07:34:09.375Z,1001.09
2018-12-08T07:35:18.599Z,1001.11
2018-12-08T07:36:28.278Z,1001.14
2018-12-08T07:37:37.472Z,1001.18
2018-12-08T07:38:46.400Z,1001.24
2018-12-08T07:39:57.547Z,1001.07
2018-12-08T07:41:07.350Z,1001.02
2018-12-08T07:42:16.592Z,1000.96
2018-12-08T07:43:25.761Z,1000.96
2018-12-08T07:44:34.693Z,1000.95
2018-12-08T07:45:44.631Z,1000.91
2018-12-08T07:46:53.821Z,1000.96
2018-12-08T07:48:02.999Z,1000.98
2018-12-08T07:49:12.425Z,1000.96
2018-12-08T07:50:21.860Z,1000.98
2018-12-08T07:51:31.325Z,1001.01
2018-12-08T07:52:40.516Z,1000.99
2018-12-08T07:53:49.689Z,1000.9
2018-12-08T07:54:58.934Z,1000.87
2018-12-08T07:56:08.358Z,1000.9
2018-12-08T07:57:17.783Z,1000.92
2018-12-08T07:58:27.228Z,1000.95
2018-12-08T07:59:36.426Z,1000.99
2018-12-08T08:00:45.404Z,1000.96
2018-12-08T08:01:54.574Z,1000.91
2018-12-08T08:03:03.998Z,1000.98
2018-12-08T08:04:13.715Z,1000.9
2018-12-08T08:05:23.393Z,1000.87
2018-12-08T08:06:33.328Z,1000.9
2018-12-08T08:07:43.026Z,1000.81
2018-12-08T08:08:52.228Z,1000.91
2018-12-08T08:10:01.917Z,1000.93
2018-12-08T08:11:11.118Z,1000.92
2018-12-08T08:12:22.733Z,1000.9
2018-12-08T08:13:31.431Z,1000.84
2018-12-08T08:14:41.596Z,1000.87
2018-12-08T08:15:51.028Z,1000.82
2018-12-08T08:16:59.982Z,1000.76
2018-12-08T08:18:09.187Z,1000.87
2018-12-08T08:19:18.633Z,1000.82
2018-12-08T08:20:27.810Z,1000.8
2018-12-08T08:21:37.496Z,1000.76
2018-12-08T08:22:46.421Z,1000.77
2018-12-08T08:23:55.623Z,1000.74
2018-12-08T08:25:05.049Z,1000.73
2018-12-08T08:26:14.772Z,1000.79
2018-12-08T08:27:24.221Z,1000.7
2018-12-08T08:28:33.418Z,1000.67
2018-12-08T08:29:43.136Z,1000.71
2018-12-08T08:30:52.433Z,1000.69
2018-12-08T08:32:01.379Z,1000.64
2018-12-08T08:33:10.842Z,1000.67
2018-12-08T08:34:20.578Z,1000.71
2018-12-08T08:35:29.759Z,1000.71
2018-12-08T08:36:39.551Z,1000.76
2018-12-08T08:37:48.740Z,1000.81
2018-12-08T08:38:57.776Z,1000.73
2018-12-08T08:40:07.003Z,1000.68
2018-12-08T08:41:16.699Z,1000.79
2018-12-08T08:42:26.252Z,1000.71
2018-12-08T08:43:35.183Z,1000.78
2018-12-08T08:44:44.628Z,1000.71
2018-12-08T08:45:53.819Z,1000.78
2018-12-08T08:47:02.734Z,1000.75
2018-12-08T08:48:12.194Z,1000.75
2018-12-08T08:49:21.395Z,1000.74
2018-12-08T08:50:30.565Z,1000.78
2018-12-08T08:51:39.495Z,1000.69
2018-12-08T08:52:49.229Z,1000.66
2018-12-08T08:53:58.653Z,1000.7
2018-12-08T08:55:08.347Z,1000.69
2018-12-08T08:56:17.312Z,1000.64
2018-12-08T08:57:26.541Z,1000.61
2018-12-08T08:58:36.066Z,1000.72
2018-12-08T08:59:45.248Z,1000.66
2018-12-08T09:00:54.424Z,1000.64
2018-12-08T09:02:03.597Z,1000.62
2018-12-08T09:03:12.283Z,1000.6
2018-12-08T09:04:21.723Z,1000.62
2018-12-08T09:05:31.146Z,1000.59
2018-12-08T09:06:40.603Z,1000.52
2018-12-08T09:07:50.327Z,1000.5
2018-12-08T09:09:00.019Z,1000.55
2018-12-08T09:10:08.936Z,1000.5
2018-12-08T09:11:18.981Z,1000.48
2018-12-08T09:12:27.921Z,1000.47
2018-12-08T09:13:37.341Z,1000.57
2018-12-08T09:14:46.557Z,1000.53
2018-12-08T09:15:56.480Z,1000.61
2018-12-08T09:17:05.510Z,1000.47
2018-12-08T09:18:14.939Z,1000.45
2018-12-08T09:19:24.383Z,1000.56
2018-12-08T09:20:34.056Z,1000.46
2018-12-08T09:21:43.474Z,1000.41
2018-12-08T09:22:52.916Z,1000.45
2018-12-08T09:24:02.091Z,1000.44
2018-12-08T09:25:11.612Z,1000.6
2018-12-08T09:26:20.795Z,1000.42
2018-12-08T09:27:30.230Z,1000.51
2018-12-08T09:28:39.766Z,1000.47
2018-12-08T09:29:48.965Z,1000.36
2018-12-08T09:30:58.434Z,1000.43
2018-12-08T09:32:07.871Z,1000.47
2018-12-08T09:33:17.336Z,1000.47
2018-12-08T09:34:26.287Z,1000.46
2018-12-08T09:35:35.967Z,1000.47
2018-12-08T09:36:45.896Z,1000.52
2018-12-08T09:37:55.331Z,1000.52
2018-12-08T09:39:05.087Z,1000.5
2018-12-08T09:40:14.285Z,1000.49
2018-12-08T09:41:23.486Z,1000.43
2018-12-08T09:42:32.169Z,1000.56
2018-12-08T09:43:41.644Z,1000.57
2018-12-08T09:44:50.886Z,1000.62
2018-12-08T09:46:00.391Z,1000.61
2018-12-08T09:47:10.074Z,1000.64
2018-12-08T09:48:19.764Z,1000.58
2018-12-08T09:49:29.462Z,1000.65
2018-12-08T09:50:38.643Z,1000.66
2018-12-08T09:51:47.831Z,1000.72
2018-12-08T09:52:57.252Z,1000.74
2018-12-08T09:54:07.218Z,1000.73
2018-12-08T09:55:16.402Z,1000.68
2018-12-08T09:56:25.578Z,1000.69
2018-12-08T09:57:35.542Z,1000.71
2018-12-08T09:58:45.232Z,1000.69
2018-12-08T09:59:54.662Z,1000.68
2018-12-08T10:01:04.095Z,1000.72
2018-12-08T10:02:13.287Z,1000.71
2018-12-08T10:03:22.724Z,1000.68
2018-12-08T10:04:32.148Z,1000.64
2018-12-08T10:05:42.101Z,1000.62
2018-12-08T10:06:51.519Z,1000.65
2018-12-08T10:08:00.959Z,1000.66
2018-12-08T10:09:10.390Z,1000.58
2018-12-08T10:10:19.574Z,1000.63
2018-12-08T10:11:28.787Z,1000.62
2018-12-08T10:12:37.981Z,1000.63
2018-12-08T10:13:47.428Z,1000.51
2018-12-08T10:14:56.669Z,1000.62
2018-12-08T10:16:05.898Z,1000.53
2018-12-08T10:17:15.585Z,1000.55
2018-12-08T10:18:25.301Z,1000.59
2018-12-08T10:19:35.060Z,1000.59
2018-12-08T10:20:44.306Z,1000.43
2018-12-08T10:21:53.973Z,1000.47
2018-12-08T10:23:03.175Z,1000.45
2018-12-08T10:24:12.914Z,1000.42
2018-12-08T10:25:22.085Z,1000.43
2018-12-08T10:26:32.011Z,1000.44
2018-12-08T10:27:42.723Z,1000.47
2018-12-08T10:28:52.245Z,1000.42
2018-12-08T10:30:01.451Z,1000.47
2018-12-08T10:31:11.240Z,1000.46
2018-12-08T10:32:20.516Z,1000.41
2018-12-08T10:33:29.953Z,1000.39
2018-12-08T10:34:39.645Z,1000.39
2018-12-08T10:35:49.134Z,1000.42
2018-12-08T10:36:58.057Z,1000.41
2018-12-08T10:38:07.249Z,1000.39
2018-12-08T10:39:16.171Z,1000.46
2018-12-08T10:40:25.624Z,1000.39
2018-12-08T10:41:35.147Z,1000.31
2018-12-08T10:42:44.870Z,1000.36
2018-12-08T10:43:54.296Z,1000.31
2018-12-08T10:45:03.248Z,1000.43
2018-12-08T10:46:12.429Z,1000.39
2018-12-08T10:47:21.674Z,1000.37
2018-12-08T10:48:31.166Z,1000.44
2018-12-08T10:49:40.836Z,1000.43
2018-12-08T10:50:50.011Z,1000.45
2018-12-08T10:51:59.701Z,1000.39
2018-12-08T10:53:09.400Z,1000.31
2018-12-08T10:54:18.863Z,1000.42
2018-12-08T10:55:29.895Z,1000.45
2018-12-08T10:56:38.583Z,1000.34
2018-12-08T10:57:47.547Z,1000.28
2018-12-08T10:58:57.249Z,1000.3
2018-12-08T11:00:06.693Z,1000.32
2018-12-08T11:01:15.636Z,1000.3
2018-12-08T11:02:24.861Z,1000.35
2018-12-08T11:03:33.570Z,1000.21
2018-12-08T11:04:42.796Z,1000.24
2018-12-08T11:05:52.217Z,1000.22
2018-12-08T11:07:01.202Z,1000.14
2018-12-08T11:08:10.911Z,1000.31
2018-12-08T11:09:20.360Z,1000.31
2018-12-08T11:10:29.805Z,1000.23
2018-12-08T11:11:39.047Z,1000.21
2018-12-08T11:12:48.252Z,1000.14
2018-12-08T11:13:57.948Z,1000.24
2018-12-08T11:15:07.633Z,1000.22
2018-12-08T11:16:16.841Z,1000.23
2018-12-08T11:17:26.764Z,1000.27
2018-12-08T11:18:36.200Z,1000.28
2018-12-08T11:19:45.154Z,1000.21
2018-12-08T11:20:54.365Z,1000.22
2018-12-08T11:22:03.362Z,1000.24
2018-12-08T11:23:12.102Z,1000.18
2018-12-08T11:24:21.300Z,1000.25
2018-12-08T11:25:30.753Z,1000.31
2018-12-08T11:26:40.345Z,1000.21
2018-12-08T11:27:49.788Z,1000.26
2018-12-08T11:28:58.990Z,1000.27
2018-12-08T11:30:08.922Z,1000.31
2018-12-08T11:31:18.113Z,1000.26
2018-12-08T11:32:27.293Z,1000.29
2018-12-08T11:33:36.748Z,1000.29
2018-12-08T11:34:46.474Z,1000.25
2018-12-08T11:35:55.652Z,1000.29
2018-12-08T11:37:04.833Z,1000.31
2018-12-08T11:38:14.023Z,1000.33
2018-12-08T11:39:23.445Z,1000.25
2018-12-08T11:40:32.909Z,1000.31
2018-12-08T11:41:42.147Z,1000.27
2018-12-08T11:42:51.853Z,1000.3
2018-12-08T11:44:01.835Z,1000.34
2018-12-08T11:45:11.167Z,1000.3
2018-12-08T11:46:20.897Z,1000.26
2018-12-08T11:47:30.079Z,1000.37
2018-12-08T11:48:39.118Z,1000.41
2018-12-08T11:49:48.616Z,1000.22
2018-12-08T11:50:58.307Z,1000.39
2018-12-08T11:52:07.484Z,1000.43
2018-12-08T11:53:16.957Z,1000.51
2018-12-08T11:54:25.980Z,1000.37
2018-12-08T11:55:36.118Z,1000.44
2018-12-08T11:56:45.810Z,1000.47
2018-12-08T11:57:55.254Z,1000.56
2018-12-08T11:59:04.503Z,1000.28
2018-12-08T12:00:13.439Z,1000.5
2018-12-08T12:01:23.132Z,1000.43
2018-12-08T12:02:32.103Z,1000.37
2018-12-08T12:03:42.092Z,1000.4
2018-12-08T12:04:51.536Z,1000.38
2018-12-08T12:06:00.863Z,1000.34
2018-12-08T12:07:09.778Z,1000.38
2018-12-08T12:08:19.206Z,1000.4
2018-12-08T12:09:28.655Z,1000.38
2018-12-08T12:10:38.101Z,1000.35
2018-12-08T12:11:47.541Z,1000.44
2018-12-08T12:12:57.018Z,1000.36
2018-12-08T12:14:06.715Z,1000.36
2018-12-08T12:15:16.141Z,1000.3
2018-12-08T12:16:25.895Z,1000.34
2018-12-08T12:17:35.373Z,1000.25
2018-12-08T12:18:44.565Z,1000.29
2018-12-08T12:19:55.356Z,1000.32
2018-12-08T12:21:05.096Z,1000.33
2018-12-08T12:22:14.034Z,1000.33
2018-12-08T12:23:23.228Z,1000.35
2018-12-08T12:24:32.668Z,1000.41
2018-12-08T12:25:42.212Z,1000.31
2018-12-08T12:26:51.398Z,1000.35
2018-12-08T12:28:01.348Z,1000.35
2018-12-08T12:29:11.772Z,1000.36
2018-12-08T12:30:21.001Z,1000.39
2018-12-08T12:31:30.181Z,1000.37
2018-12-08T12:32:39.116Z,1000.4
2018-12-08T12:33:48.820Z,1000.37
2018-12-08T12:34:57.778Z,1000.36
2018-12-08T12:36:06.727Z,1000.31
2018-12-08T12:37:16.184Z,1000.34
2018-12-08T12:38:25.408Z,1000.31
2018-12-08T12:39:34.366Z,1000.32
2018-12-08T12:40:43.565Z,1000.33
2018-12-08T12:41:52.989Z,1000.31
2018-12-08T12:43:04.698Z,1000.31
2018-12-08T12:44:14.154Z,1000.32
2018-12-08T12:45:23.607Z,1000.3
2018-12-08T12:46:33.054Z,1000.32
2018-12-08T12:47:42.380Z,1000.32
2018-12-08T12:48:52.068Z,1000.31
2018-12-08T12:50:01.769Z,1000.35
2018-12-08T12:51:11.222Z,1000.32
2018-12-08T12:52:20.885Z,1000.24
2018-12-08T12:53:30.076Z,1000.24
2018-12-08T12:54:39.777Z,1000.26
2018-12-08T12:55:48.954Z,1000.26
2018-12-08T12:56:58.465Z,1000.2
2018-12-08T12:58:08.005Z,1000.17
2018-12-08T12:59:17.805Z,1000.12
2018-12-08T13:00:26.751Z,1000.2
2018-12-08T13:01:35.718Z,1000.12
2018-12-08T13:02:44.917Z,1000.17
2018-12-08T13:03:54.146Z,1000.19
2018-12-08T13:05:04.084Z,1000.18
2018-12-08T13:06:13.509Z,1000.2
2018-12-08T13:07:22.701Z,1000.24
2018-12-08T13:08:32.386Z,1000.23
2018-12-08T13:09:41.568Z,1000.23
2018-12-08T13:10:51.285Z,1000.15
2018-12-08T13:12:01.265Z,1000.22
2018-12-08T13:13:10.484Z,1000.18
2018-12-08T13:14:19.936Z,1000.25
2018-12-08T13:15:28.871Z,1000.38
2018-12-08T13:16:38.076Z,1000.24
2018-12-08T13:17:47.669Z,1000.29
2018-12-08T13:18:56.872Z,1000.24
2018-12-08T13:20:06.287Z,1000.19
2018-12-08T13:21:15.463Z,1000.25
2018-12-08T13:22:25.141Z,1000.17
2018-12-08T13:23:34.151Z,1000.26
2018-12-08T13:24:43.363Z,1000.22
2018-12-08T13:25:53.297Z,1000.19
2018-12-08T13:27:02.565Z,1000.22
2018-12-08T13:28:12.049Z,1000.24
2018-12-08T13:29:21.515Z,1000.23
2018-12-08T13:30:32.466Z,1000.22
2018-12-08T13:31:42.160Z,1000.25
2018-12-08T13:32:51.606Z,1000.23
2018-12-08T13:34:01.338Z,1000.26
2018-12-08T13:35:10.771Z,1000.2
2018-12-08T13:36:19.955Z,1000.21
2018-12-08T13:37:29.639Z,1000.17
2018-12-08T13:38:39.360Z,1000.13
2018-12-08T13:39:48.574Z,1000.24
2018-12-08T13:40:58.042Z,1000.18
2018-12-08T13:42:07.542Z,1000.09
2018-12-08T13:43:16.462Z,1000.05
2018-12-08T13:44:26.190Z,1000.1
2018-12-08T13:45:35.128Z,999.98
2018-12-08T13:46:44.556Z,999.95
2018-12-08T13:47:53.511Z,1000.02
2018-12-08T13:49:03.206Z,1000.01
2018-12-08T13:50:12.181Z,1000.05
2018-12-08T13:51:21.368Z,1000.05
2018-12-08T13:52:30.363Z,999.99
2018-12-08T13:53:40.049Z,999.96
2018-12-08T13:54:49.750Z,999.94
2018-12-08T13:55:58.961Z,999.99
2018-12-08T13:57:08.425Z,999.97
2018-12-08T13:58:17.627Z,999.98
2018-12-08T13:59:27.302Z,1000.03
2018-12-08T14:00:36.762Z,1000.01
2018-12-08T14:01:45.934Z,999.93
2018-12-08T14:02:54.611Z,999.92